createdAt,value
2023-04-30T00:00:52.074Z,1026.258124175967
2023-04-30T00:07:13.965Z,1026.2913606131945
2023-04-30T00:13:35.666Z,1026.3311007105162
2023-04-30T00:22:59.953Z,1026.4367662755774
2023-04-30T00:29:23.910Z,1026.4415638522369
2023-04-30T00:42:54.146Z,1026.5156918003536
2023-04-30T00:49:16.609Z,1026.5135879878428
2023-04-30T00:55:38.196Z,1026.526487344716
2023-04-30T01:04:24.326Z,1026.5788434544993
2023-04-30T01:10:45.369Z,1026.5996810821116
2023-04-30T01:17:07.161Z,1026.596527450119
2023-04-30T01:23:29.976Z,1026.639889939311
2023-04-30T01:29:50.996Z,1026.660832519913
2023-04-30T01:36:14.075Z,1026.6408027030266
2023-04-30T01:42:33.830Z,1026.6566156818599
2023-04-30T01:51:10.360Z,1026.737540875884
2023-04-30T01:57:29.849Z,1026.744124943795
2023-04-30T02:09:47.516Z,1026.7611059502128
2023-04-30T02:16:06.805Z,1026.883491036564
2023-04-30T02:22:26.494Z,1026.8968786700566
2023-04-30T02:28:45.128Z,1026.9081013088005
2023-04-30T02:42:00.766Z,1027.0033695529107
2023-04-30T02:48:20.319Z,1027.0315287622607
2023-04-30T02:56:03.336Z,1027.0676543184854
2023-04-30T03:02:22.450Z,1027.0964152716776
2023-04-30T03:08:42.026Z,1027.0424303778332
2023-04-30T03:15:04.344Z,1027.0080855483106
2023-04-30T03:21:25.092Z,1027.0284368944915
2023-04-30T03:27:44.393Z,1027.0555542643585
2023-04-30T03:34:03.889Z,1027.0497682388327
2023-04-30T03:40:23.078Z,1027.0563524497734
2023-04-30T03:46:43.288Z,1027.067618872542
2023-04-30T04:03:49.033Z,1027.0538740519996
2023-04-30T04:10:09.309Z,1027.0787705323276
2023-04-30T04:16:32.394Z,1027.1482179649659
2023-04-30T04:22:54.680Z,1027.1461940933873
2023-04-30T04:32:00.107Z,1027.2052323318833
2023-04-30T04:38:22.832Z,1027.285698595121
2023-04-30T04:44:44.256Z,1027.3609916591101
2023-04-30T04:52:31.743Z,1027.4091008329897
2023-04-30T04:58:54.248Z,1027.4882465789556
2023-04-30T05:07:27.211Z,1027.6550106645846
2023-04-30T05:18:41.253Z,1027.778478995605
2023-04-30T05:25:04.978Z,1027.8014291854727
2023-04-30T05:36:12.526Z,1027.8988311204873
2023-04-30T05:47:13.124Z,1028.0104479163697
2023-04-30T05:53:35.733Z,1027.9789274540371
2023-04-30T05:59:59.910Z,1027.9983679669315
2023-04-30T06:06:24.096Z,1028.0439558768473
2023-04-30T06:12:45.943Z,1028.001108234133
2023-04-30T06:19:08.096Z,1028.057569172259
2023-04-30T06:25:32.244Z,1028.0613297535758
2023-04-30T06:31:55.717Z,1028.1369406768858
2023-04-30T06:41:38.438Z,1028.114116550731
2023-04-30T06:48:02.118Z,1028.1059329454724
2023-04-30T06:54:25.806Z,1028.093974021662
2023-04-30T07:03:20.963Z,1028.131117830715
2023-04-30T07:09:45.505Z,1028.1137886220254
2023-04-30T07:21:06.984Z,1028.137021263354
2023-04-30T07:28:12.397Z,1028.1387493415114
2023-04-30T07:34:34.673Z,1028.112824638583
2023-04-30T07:40:58.157Z,1028.136980919963
2023-04-30T07:53:34.020Z,1028.1695334534356
2023-04-30T07:59:56.817Z,1028.2055784380375
2023-04-30T08:06:20.213Z,1028.2119974542131
2023-04-30T08:14:16.524Z,1028.2070247510517
2023-04-30T08:20:38.984Z,1028.196763305737
2023-04-30T08:27:40.547Z,1028.2467405197294
2023-04-30T08:34:08.438Z,1028.246572288856
2023-04-30T08:43:43.411Z,1028.186245298999
2023-04-30T08:50:07.168Z,1028.2008013267532
2023-04-30T08:56:30.162Z,1028.240299911964
2023-04-30T09:02:54.723Z,1028.2008878240129
2023-04-30T09:16:53.852Z,1028.1719068921107
2023-04-30T09:28:24.024Z,1028.198311129736
2023-04-30T09:34:57.802Z,1028.109508549928
2023-04-30T09:41:19.829Z,1028.0842100077905
2023-04-30T09:47:41.872Z,1028.0292611448335
2023-04-30T09:54:05.017Z,1028.0211829699408
2023-04-30T10:00:28.398Z,1027.9471781138316
2023-04-30T10:06:48.314Z,1027.9069537155845
2023-04-30T10:13:09.185Z,1027.827422502982
2023-04-30T10:19:29.046Z,1027.7533619612918
2023-04-30T10:25:49.873Z,1027.7128825699517
2023-04-30T10:32:12.096Z,1027.6880443485638
2023-04-30T10:38:34.062Z,1027.6917180702546
2023-04-30T10:44:55.502Z,1027.675854227086
2023-04-30T10:55:59.847Z,1027.6001565857557
2023-04-30T11:13:33.494Z,1027.5075911796196
2023-04-30T11:23:08.854Z,1027.4663620485692
2023-04-30T11:29:28.821Z,1027.5038435620281
2023-04-30T11:35:48.836Z,1027.470688189865
2023-04-30T11:48:14.859Z,1027.310641363933
2023-04-30T11:54:34.747Z,1027.2945481368633
2023-04-30T12:00:55.443Z,1027.2499422277742
2023-04-30T12:07:16.512Z,1027.2606986023543
2023-04-30T12:13:37.048Z,1027.163946404922
2023-04-30T12:20:02.316Z,1027.0665793009373
2023-04-30T12:26:23.838Z,1027.0286233621737
2023-04-30T12:32:44.852Z,1026.9750178931245
2023-04-30T12:40:50.026Z,1026.8767554633978
2023-04-30T12:47:11.464Z,1026.8460850751835
2023-04-30T12:53:34.601Z,1026.810906373051
2023-04-30T13:02:44.281Z,1026.7353041129782
2023-04-30T13:09:05.892Z,1026.6877250090809
2023-04-30T13:21:54.393Z,1026.5568212448652
2023-04-30T13:34:03.731Z,1026.3005660226436
2023-04-30T13:40:26.640Z,1026.2431218800514
2023-04-30T13:46:50.457Z,1026.1757377366716
2023-04-30T13:58:05.437Z,1026.0527297680105
2023-04-30T14:05:08.444Z,1026.0109490387224
2023-04-30T14:15:21.180Z,1025.8827420520904
2023-04-30T14:21:41.926Z,1025.7963339495195
2023-04-30T14:28:02.778Z,1025.7156857061202
2023-04-30T14:34:24.034Z,1025.6564605400006
2023-04-30T14:40:46.075Z,1025.578950759083
2023-04-30T14:47:07.220Z,1025.4885563080095
2023-04-30T14:54:21.324Z,1025.4053269899555
2023-04-30T15:00:41.771Z,1025.3997273497619
2023-04-30T15:07:03.817Z,1025.263266527702
2023-04-30T15:20:22.074Z,1025.1200413271913
2023-04-30T15:26:41.925Z,1025.0946498133605
2023-04-30T15:33:02.165Z,1025.1359469904278
2023-04-30T15:39:29.435Z,1025.0730807307814
2023-04-30T15:45:51.728Z,1025.0251314897412
2023-04-30T15:52:11.273Z,1024.9458225828216
2023-04-30T15:58:41.981Z,1024.9667553964093
2023-04-30T16:05:02.153Z,1024.9299918822132
2023-04-30T16:11:22.117Z,1024.8780914473414
2023-04-30T16:17:41.775Z,1024.87293264602
2023-04-30T16:24:01.192Z,1024.8303318045078
2023-04-30T16:30:20.723Z,1024.825411513379
2023-04-30T16:36:41.252Z,1024.7862881142914
2023-04-30T16:43:00.262Z,1024.741755600498
2023-04-30T16:49:20.160Z,1024.6939260420068
2023-04-30T16:55:41.163Z,1024.6587366404017
2023-04-30T17:02:02.214Z,1024.6454455838295
2023-04-30T17:08:23.085Z,1024.598232415499
2023-04-30T17:14:43.950Z,1024.5440434073807
2023-04-30T17:21:05.031Z,1024.4762889493784
2023-04-30T17:27:26.483Z,1024.4808930030922
2023-04-30T17:33:47.365Z,1024.4663687739483
2023-04-30T17:40:08.669Z,1024.4795297480644
2023-04-30T17:46:30.257Z,1024.4841252995816
2023-04-30T17:52:52.793Z,1024.4345437771444
2023-04-30T17:59:16.426Z,1024.38850027457
2023-04-30T18:09:31.541Z,1024.3632654487096
2023-04-30T18:16:07.630Z,1024.3454400444682
2023-04-30T18:22:30.629Z,1024.305540364301
2023-04-30T18:28:56.343Z,1024.2720351155542
2023-04-30T18:35:22.392Z,1024.2703031099936
2023-04-30T18:45:38.643Z,1024.269658315509
2023-04-30T18:56:12.840Z,1024.1739415989
2023-04-30T19:02:52.983Z,1024.181445290223
2023-04-30T19:09:15.831Z,1024.1906149696904
2023-04-30T19:15:38.575Z,1024.2476187124541
2023-04-30T19:22:01.291Z,1024.2562732473862
2023-04-30T19:28:31.278Z,1024.2544435231691
2023-04-30T19:34:53.998Z,1024.2988610313569
2023-04-30T19:41:21.431Z,1024.3579384413006
2023-04-30T19:49:04.069Z,1024.3393605975982
2023-04-30T19:55:27.558Z,1024.324963993987
2023-04-30T20:01:56.034Z,1024.2506159477425
2023-04-30T20:11:58.475Z,1024.2974869696393
2023-04-30T20:18:24.827Z,1024.286190341255
2023-04-30T20:24:49.023Z,1024.2837913756591
2023-04-30T20:34:00.024Z,1024.259507251988
2023-04-30T20:40:31.242Z,1024.223251386391
2023-04-30T20:46:58.196Z,1024.2501995397527
2023-04-30T20:53:25.090Z,1024.2340921785062
2023-04-30T20:59:47.027Z,1024.2161820273423
2023-04-30T21:06:14.369Z,1024.1736482504816
2023-04-30T21:12:42.885Z,1024.1228443482873
2023-04-30T21:19:04.273Z,1024.0750726065132
2023-04-30T21:25:36.784Z,1024.063796274828
2023-04-30T21:31:59.346Z,1024.018921536378
2023-04-30T21:38:22.258Z,1023.9994225537332
2023-04-30T21:44:44.262Z,1023.9581791089663
2023-04-30T21:51:04.597Z,1023.9103161482429
2023-04-30T21:57:25.609Z,1023.8716375921323
2023-04-30T22:07:20.621Z,1023.7906421339568
2023-04-30T22:16:00.361Z,1023.6449480179174
2023-04-30T22:22:21.537Z,1023.5386701920526
2023-04-30T22:28:44.771Z,1023.5172473299189
2023-04-30T22:36:09.434Z,1023.485488826362
2023-04-30T22:42:28.323Z,1023.433990953837
2023-04-30T23:03:33.224Z,1023.2951699091693
2023-04-30T23:09:52.389Z,1023.2506436775146
2023-04-30T23:21:36.564Z,1023.1675364669005
2023-04-30T23:29:32.236Z,1023.0785638657535
2023-04-30T23:35:52.763Z,1022.9921087259598
2023-04-30T23:44:58.157Z,1022.9254502650729
2023-04-30T23:51:18.872Z,1022.8748194741904
2023-04-30T23:57:38.018Z,1022.8095879036354
